Terminal Aerodrome Forecast
Issued by NWS

Home | Current Version | Previous Version | Graphics & Text | Print | Product List | Glossary On
Versions: 1 2 3 4 5 6 7 8 9 10 11 12 13
000
FTUS43 KIWX 201700
TAFSBN
TAF
KSBN 201720Z 2018/2118 04006KT P6SM BKN120
     FM202100 35009KT P6SM OVC100
     FM210000 35006KT P6SM -SHRA OVC070
     FM210400 34004KT P6SM OVC060
     FM211500 29010KT P6SM BKN080=

USA.gov is the U.S. government's official web portal to all federal, state and local government web resources and services.